Terminal Aerodrome Forecast
Issued by NWS Portland, OR

Home | Current Version | Previous Version | Text Only | Print | Product List | Glossary On
Versions: 1 2 3 4 5 6 7 8 9 10 11 12 13 14 15 16 17 18 19 20 21 22 23 24 25 26 27 28 29 30 31 32 33
000
FTUS46 KPQR 201106 AAA
TAFEUG
TAF AMD
KEUG 201106Z 2011/2106 16012KT P6SM -RA SCT025 OVC045
     FM201500 17013KT 5SM -RA BR SCT015 BKN025 OVC040
     FM201800 18014G22KT 4SM -RA BR SCT008 BKN015 OVC030=

USA.gov is the U.S. government's official web portal to all federal, state and local government web resources and services.